Time;durP1;ratioP1;P1;durP2;ratioP2;P2;SDS_P1;SDS_P2;PMS_P1;PMS_P2;Temp;Humidity;BMP_temperature;BMP_pressure;BME280_temperature;BME280_humidity;BME280_pressure;Samples;Min_cycle;Max_cycle;Signal;HPM_P1;HPM_P2
2023/04/14 00:00:23;;;;;;;11.23;8.02;;;;;;;10.20;87.10;100928.81;5057419;28;20044;-69
2023/04/14 00:02:48;;;;;;;12.80;8.50;;;;;;;10.17;87.48;100929.19;5040834;28;20040;-70
2023/04/14 00:05:14;;;;;;;16.63;8.38;;;;;;;10.17;87.27;100926.50;5057838;28;20518;-69
2023/04/14 00:07:39;;;;;;;14.05;8.00;;;;;;;9.95;88.23;100908.72;5040818;28;20036;-69
2023/04/14 00:10:05;;;;;;;13.38;8.80;;;;;;;10.04;87.77;100939.84;5057490;28;20068;-69
2023/04/14 00:12:30;;;;;;;11.63;8.18;;;;;;;9.84;88.10;100913.59;5038819;28;20039;-69
2023/04/14 00:14:56;;;;;;;15.75;9.13;;;;;;;9.97;88.43;100941.63;5057131;28;20032;-69
2023/04/14 00:17:21;;;;;;;11.65;7.97;;;;;;;9.89;90.20;100943.41;5056569;28;20448;-70
2023/04/14 00:19:46;;;;;;;11.73;8.02;;;;;;;9.82;89.92;100947.88;5058434;28;20053;-69
2023/04/14 00:22:12;;;;;;;12.50;8.15;;;;;;;9.87;89.61;100945.47;5057032;28;20567;-69
2023/04/14 00:24:42;;;;;;;11.55;8.13;;;;;;;9.89;88.50;100945.25;5058601;28;20029;-69
2023/04/14 00:27:08;;;;;;;11.55;7.63;;;;;;;9.81;88.82;100946.22;5056591;28;20345;-69
2023/04/14 00:29:34;;;;;;;11.52;7.53;;;;;;;9.82;88.15;100955.13;5059918;28;20025;-69
2023/04/14 00:31:59;;;;;;;11.88;7.72;;;;;;;9.77;88.92;100960.25;5062770;28;20032;-69
2023/04/14 00:34:25;;;;;;;12.20;7.57;;;;;;;9.77;87.84;100963.75;5057561;28;20424;-69
2023/04/14 00:36:50;;;;;;;13.05;8.63;;;;;;;9.57;89.76;100963.53;5055716;28;20131;-69
2023/04/14 00:39:15;;;;;;;12.98;7.85;;;;;;;9.56;90.68;100967.22;5057800;28;20052;-69
2023/04/14 00:41:42;;;;;;;10.57;7.97;;;;;;;9.62;89.33;100966.47;5040370;28;20032;-70
2023/04/14 00:44:08;;;;;;;13.55;8.48;;;;;;;9.59;87.87;100957.94;5056736;28;20071;-69
2023/04/14 00:46:34;;;;;;;16.00;8.90;;;;;;;9.44;90.34;100968.75;5023319;28;20025;-69
2023/04/14 00:48:59;;;;;;;10.45;8.25;;;;;;;9.57;88.56;100976.97;5057082;28;20083;-69
2023/04/14 00:51:26;;;;;;;14.20;8.88;;;;;;;9.48;89.04;100975.41;5054545;28;20021;-69
2023/04/14 00:53:53;;;;;;;10.73;8.40;;;;;;;9.54;88.24;100979.19;5056743;28;20025;-70
2023/04/14 00:56:19;;;;;;;13.15;9.68;;;;;;;9.50;88.17;100977.88;5039183;28;20029;-69
2023/04/14 00:58:45;;;;;;;15.70;9.93;;;;;;;9.39;87.78;100957.72;5049632;28;20037;-69
2023/04/14 01:01:11;;;;;;;13.65;9.13;;;;;;;9.51;88.11;100984.94;5063179;28;20032;-69
2023/04/14 01:03:37;;;;;;;13.57;9.68;;;;;;;9.45;87.77;100988.38;5052732;28;20400;-69
2023/04/14 01:06:03;;;;;;;12.70;10.00;;;;;;;9.34;88.25;100963.66;5054859;28;20037;-69
2023/04/14 01:08:28;;;;;;;14.10;9.57;;;;;;;9.36;88.33;100991.13;5039505;28;20104;-69
2023/04/14 01:11:10;;;;;;;14.15;9.63;;;;;;;9.37;87.91;100981.22;5039891;28;20025;-69
2023/04/14 01:14:01;;;;;;;12.52;9.18;;;;;;;9.39;87.83;100990.78;5057059;28;20029;-69
2023/04/14 01:16:37;;;;;;;13.98;9.48;;;;;;;9.38;88.52;100983.75;5056077;28;20032;-70
2023/04/14 01:19:40;;;;;;;17.50;9.98;;;;;;;9.33;88.25;100988.00;5054726;28;20268;-69
2023/04/14 01:22:09;;;;;;;17.65;9.50;;;;;;;9.39;88.28;100990.78;5053386;28;20032;-69
2023/04/14 01:25:32;;;;;;;16.45;10.05;;;;;;;9.40;88.08;100979.03;5055842;28;20029;-69
2023/04/14 01:28:35;;;;;;;14.88;10.30;;;;;;;9.40;87.95;100997.81;5035060;28;20033;-69
2023/04/14 01:31:21;;;;;;;13.88;9.80;;;;;;;9.40;87.93;100996.97;5035384;28;20030;-69
2023/04/14 01:33:59;;;;;;;16.17;11.25;;;;;;;9.36;87.68;100991.13;5055415;28;20025;-69
2023/04/14 01:36:40;;;;;;;17.70;10.60;;;;;;;9.44;87.68;100995.59;5055725;28;20021;-69
2023/04/14 01:39:09;;;;;;;16.90;11.48;;;;;;;9.47;87.93;101010.50;5057210;28;20033;-69
2023/04/14 01:41:41;;;;;;;15.68;11.07;;;;;;;9.48;87.91;101009.50;5055659;28;20033;-70
2023/04/14 01:44:09;;;;;;;16.60;10.95;;;;;;;9.45;87.64;101015.22;5056826;28;20112;-69
2023/04/14 01:46:35;;;;;;;13.55;10.30;;;;;;;9.37;88.06;101006.25;5057087;28;20025;-69
2023/04/14 01:49:01;;;;;;;18.00;11.48;;;;;;;9.45;88.28;101021.44;5038582;28;20083;-70
2023/04/14 01:51:28;;;;;;;21.85;10.90;;;;;;;9.49;88.77;101027.25;5055720;28;20032;-69
2023/04/14 01:53:56;;;;;;;14.70;10.10;;;;;;;9.52;88.04;101027.72;5056924;28;20017;-69
2023/04/14 01:56:23;;;;;;;13.98;10.32;;;;;;;9.54;88.17;101030.22;5058728;28;20025;-70
2023/04/14 01:58:51;;;;;;;13.95;10.15;;;;;;;9.55;88.21;101030.03;5062909;28;20033;-69
2023/04/14 02:01:18;;;;;;;16.13;10.15;;;;;;;9.40;88.70;101016.63;5059457;28;20039;-69
2023/04/14 02:03:46;;;;;;;12.10;10.02;;;;;;;9.35;88.82;101005.59;5056337;28;20478;-69
2023/04/14 02:06:13;;;;;;;15.82;10.30;;;;;;;9.43;89.07;101026.13;5057248;28;20024;-69
2023/04/14 02:08:40;;;;;;;16.45;10.05;;;;;;;9.47;88.68;101029.28;5055905;28;20090;-69
2023/04/14 02:11:07;;;;;;;15.77;10.23;;;;;;;9.61;88.87;101044.59;5064791;28;20025;-69
2023/04/14 02:13:34;;;;;;;15.02;9.88;;;;;;;9.62;88.81;101047.06;5070989;28;20013;-69
2023/04/14 02:16:01;;;;;;;14.88;10.02;;;;;;;9.60;88.15;101054.50;5073297;28;20090;-69
2023/04/14 02:18:30;;;;;;;12.35;9.57;;;;;;;9.48;89.14;101041.72;5073229;28;20105;-70
2023/04/14 02:20:58;;;;;;;14.63;9.95;;;;;;;9.55;88.36;101053.38;5073278;28;20052;-69
2023/04/14 02:23:23;;;;;;;15.40;10.25;;;;;;;9.57;88.38;101062.06;5072417;28;20037;-69
2023/04/14 02:25:54;;;;;;;15.85;10.35;;;;;;;9.59;89.08;101062.72;5073728;28;20033;-69
2023/04/14 02:28:26;;;;;;;18.33;10.27;;;;;;;9.38;88.70;101034.78;5072505;28;20036;-70
2023/04/14 02:30:54;;;;;;;14.73;10.10;;;;;;;9.59;88.39;101071.63;5071864;28;20035;-69
2023/04/14 02:33:24;;;;;;;15.07;10.82;;;;;;;9.58;89.26;101066.44;5066239;28;20024;-69
2023/04/14 02:36:19;;;;;;;12.27;9.40;;;;;;;9.61;88.84;101074.13;5060711;28;20400;-69
2023/04/14 02:38:53;;;;;;;15.35;10.30;;;;;;;9.62;88.02;101065.88;5060671;28;20025;-69
2023/04/14 02:41:30;;;;;;;16.52;9.98;;;;;;;9.61;88.39;101066.06;5059127;28;20128;-69
2023/04/14 02:44:20;;;;;;;15.93;10.45;;;;;;;9.51;89.52;101077.09;5056532;28;20078;-69
2023/04/14 02:46:56;;;;;;;13.70;10.32;;;;;;;9.42;90.82;101072.84;5057749;28;20052;-69
2023/04/14 02:49:23;;;;;;;15.25;10.50;;;;;;;9.22;90.62;101064.47;5062727;28;20055;-69
2023/04/14 02:51:50;;;;;;;13.93;11.57;;;;;;;9.12;91.29;101077.34;5041895;28;20045;-69
2023/04/14 02:54:18;;;;;;;16.30;11.43;;;;;;;8.87;92.78;101056.13;5057813;28;20036;-69
2023/04/14 02:56:44;;;;;;;17.63;11.13;;;;;;;8.77;93.24;101066.25;5058343;28;20037;-69
2023/04/14 02:59:11;;;;;;;15.90;10.48;;;;;;;8.91;93.52;101094.16;5058283;28;20163;-69
2023/04/14 03:01:37;;;;;;;13.90;10.90;;;;;;;8.84;94.66;101096.72;5059795;28;20021;-69
2023/04/14 03:04:03;;;;;;;15.45;10.23;;;;;;;8.76;95.33;101099.47;5059786;28;20025;-69
2023/04/14 03:06:30;;;;;;;16.75;10.40;;;;;;;9.02;93.23;101093.72;5060678;28;20040;-70
2023/04/14 03:08:58;;;;;;;14.45;10.52;;;;;;;9.03;91.79;101086.47;5059880;28;20103;-70
2023/04/14 03:11:26;;;;;;;15.18;10.68;;;;;;;9.03;90.94;101094.53;5058951;28;20376;-69
2023/04/14 03:13:53;;;;;;;15.55;11.35;;;;;;;9.19;90.11;101102.44;5059013;28;20109;-68
2023/04/14 03:16:20;;;;;;;15.35;10.95;;;;;;;9.18;89.27;101106.16;5060040;28;20052;-69
2023/04/14 03:18:49;;;;;;;15.57;10.55;;;;;;;8.96;89.53;101085.56;5041394;28;20198;-69
2023/04/14 03:21:17;;;;;;;15.20;10.93;;;;;;;9.02;89.61;101109.81;5055698;28;20027;-69
2023/04/14 03:23:45;;;;;;;17.15;12.15;;;;;;;9.02;89.38;101098.25;5054890;28;20076;-68
2023/04/14 03:26:16;;;;;;;16.60;11.13;;;;;;;9.07;89.70;101107.44;5056957;28;20025;-69
2023/04/14 03:28:42;;;;;;;18.13;11.30;;;;;;;8.97;89.44;101114.03;5058080;28;20060;-69
2023/04/14 03:31:10;;;;;;;15.40;11.13;;;;;;;8.99;89.67;101122.75;5059216;28;20340;-69
2023/04/14 03:33:37;;;;;;;20.33;12.15;;;;;;;8.96;88.95;101123.97;5057687;28;20033;-70
2023/04/14 03:36:04;;;;;;;17.15;11.63;;;;;;;8.93;89.54;101122.47;5041332;28;20101;-69
2023/04/14 03:38:32;;;;;;;17.85;11.90;;;;;;;9.02;89.70;101141.19;5059299;28;20027;-69
2023/04/14 03:41:02;;;;;;;16.55;11.60;;;;;;;9.00;89.35;101135.16;5058252;28;20032;-69
2023/04/14 03:43:28;;;;;;;16.60;11.80;;;;;;;8.92;88.99;101138.75;5058102;28;20116;-69
2023/04/14 03:45:53;;;;;;;15.02;12.05;;;;;;;8.85;89.10;101135.97;5057405;28;20055;-69
2023/04/14 03:48:20;;;;;;;20.10;13.18;;;;;;;8.82;89.14;101138.16;5062607;28;20024;-69
2023/04/14 03:50:48;;;;;;;18.58;12.60;;;;;;;8.77;89.40;101133.31;5060795;28;20065;-69
2023/04/14 03:53:16;;;;;;;18.20;12.77;;;;;;;8.76;89.30;101142.38;5056441;28;20474;-69
2023/04/14 03:55:44;;;;;;;17.70;12.48;;;;;;;8.58;89.32;101115.03;5039688;28;20051;-69
2023/04/14 03:58:16;;;;;;;19.17;12.93;;;;;;;8.58;89.80;101128.44;5057370;28;20033;-69
2023/04/14 04:00:42;;;;;;;19.02;13.43;;;;;;;8.57;89.34;101140.19;5057968;28;20021;-69
2023/04/14 04:03:09;;;;;;;18.52;13.30;;;;;;;8.59;89.21;101143.53;5057470;28;20025;-69
2023/04/14 04:05:38;;;;;;;18.08;13.23;;;;;;;8.57;90.09;101143.69;5024512;28;20036;-69
2023/04/14 04:08:05;;;;;;;19.42;13.48;;;;;;;8.59;89.03;101140.84;5058359;28;20021;-69
2023/04/14 04:10:35;;;;;;;18.63;13.55;;;;;;;8.62;89.83;101152.06;5057501;28;20204;-69
2023/04/14 04:13:02;;;;;;;19.70;13.63;;;;;;;8.60;89.55;101151.38;5058496;28;20059;-69
2023/04/14 04:15:30;;;;;;;18.70;14.02;;;;;;;8.59;89.46;101147.03;5058785;28;20017;-70
2023/04/14 04:17:58;;;;;;;19.13;13.93;;;;;;;8.62;89.88;101149.38;5058504;28;20476;-69
2023/04/14 04:20:25;;;;;;;17.63;12.70;;;;;;;8.66;89.50;101153.34;5056669;28;20049;-69
2023/04/14 04:22:54;;;;;;;19.80;13.98;;;;;;;8.66;89.16;101160.56;5057206;28;20083;-69
2023/04/14 04:25:19;;;;;;;22.02;13.93;;;;;;;8.76;89.07;101165.72;5057927;28;20029;-70
2023/04/14 04:27:45;;;;;;;18.55;12.93;;;;;;;9.04;88.11;101176.72;5056360;28;20031;-69
2023/04/14 04:30:12;;;;;;;21.15;13.77;;;;;;;9.06;87.54;101156.75;5038095;28;20395;-69
2023/04/14 04:32:38;;;;;;;20.30;13.40;;;;;;;8.99;87.05;101171.91;5056084;28;20341;-69
2023/04/14 04:35:07;;;;;;;15.25;11.43;;;;;;;8.99;87.33;101182.66;5057624;28;20025;-69
2023/04/14 04:37:36;;;;;;;15.32;11.63;;;;;;;8.86;87.23;101175.19;5061580;28;20047;-69
2023/04/14 04:40:02;;;;;;;17.15;11.50;;;;;;;8.84;87.70;101176.38;5055638;28;20021;-69
2023/04/14 04:42:28;;;;;;;20.55;12.20;;;;;;;8.80;87.08;101178.56;5055553;28;20043;-69
2023/04/14 04:44:53;;;;;;;21.67;13.73;;;;;;;8.79;87.05;101173.41;5053562;28;20025;-69
2023/04/14 04:47:19;;;;;;;15.65;13.63;;;;;;;8.80;87.25;101191.16;5056331;28;20037;-69
2023/04/14 04:49:44;;;;;;;23.65;15.13;;;;;;;8.51;89.00;101181.09;5056170;28;20036;-69
2023/04/14 04:52:10;;;;;;;23.73;16.40;;;;;;;8.59;89.39;101189.13;5057642;28;20028;-69
2023/04/14 04:54:35;;;;;;;22.13;15.98;;;;;;;8.63;89.59;101198.47;5056206;28;20031;-69
2023/04/14 04:57:00;;;;;;;22.38;15.50;;;;;;;9.09;87.50;101187.78;5039387;28;20403;-70
2023/04/14 04:59:26;;;;;;;18.92;14.43;;;;;;;9.69;86.26;101194.13;5056471;28;20112;-69
2023/04/14 05:01:51;;;;;;;22.55;14.85;;;;;;;9.80;84.74;101185.59;5056314;28;20035;-70
2023/04/14 05:04:17;;;;;;;18.83;13.15;;;;;;;9.67;84.61;101180.00;5056668;28;20021;-69
2023/04/14 05:06:42;;;;;;;24.60;14.38;;;;;;;9.43;85.39;101192.66;5055265;28;20202;-69
2023/04/14 05:09:07;;;;;;;20.33;15.27;;;;;;;9.18;86.89;101200.13;5039030;28;20037;-70
2023/04/14 05:11:33;;;;;;;21.67;15.18;;;;;;;9.20;86.74;101205.31;5056855;28;20037;-69
2023/04/14 05:13:59;;;;;;;20.63;13.82;;;;;;;9.17;86.00;101185.00;5056748;28;20029;-69
2023/04/14 05:16:27;;;;;;;20.10;14.13;;;;;;;9.39;85.92;101202.94;5055572;28;20078;-69
2023/04/14 05:18:52;;;;;;;20.88;14.80;;;;;;;9.48;85.70;101214.47;5055127;28;20116;-69
2023/04/14 05:21:18;;;;;;;21.27;16.30;;;;;;;9.39;86.12;101197.56;5056150;28;20142;-69
2023/04/14 05:23:44;;;;;;;22.98;16.00;;;;;;;9.50;85.59;101216.94;5051747;28;20127;-70
2023/04/14 05:26:13;;;;;;;19.98;14.35;;;;;;;8.83;90.05;101194.31;5054467;28;20032;-69
2023/04/14 05:28:39;;;;;;;19.80;15.57;;;;;;;8.38;93.36;101201.31;5057032;28;20036;-70
2023/04/14 05:31:05;;;;;;;22.25;15.50;;;;;;;8.51;94.22;101213.28;5057104;28;20036;-69
2023/04/14 05:33:30;;;;;;;21.10;15.57;;;;;;;8.69;93.75;101213.88;5055315;28;20037;-69
2023/04/14 05:35:56;;;;;;;21.63;15.45;;;;;;;8.56;96.22;101210.94;5056499;28;20035;-69
2023/04/14 05:38:21;;;;;;;22.30;15.90;;;;;;;8.88;94.66;101210.75;5056562;28;20571;-69
2023/04/14 05:40:47;;;;;;;21.13;16.27;;;;;;;8.96;94.05;101214.38;5038646;28;20081;-69
2023/04/14 05:43:13;;;;;;;21.45;16.27;;;;;;;8.67;95.95;101189.06;5056689;28;20155;-69
2023/04/14 05:45:39;;;;;;;19.17;15.90;;;;;;;8.81;96.48;101211.63;5039198;28;20111;-70
2023/04/14 05:48:05;;;;;;;20.98;16.35;;;;;;;8.91;96.27;101221.13;5058578;28;20036;-69
2023/04/14 05:50:32;;;;;;;22.33;17.35;;;;;;;9.24;94.82;101217.34;5059585;28;20035;-69
2023/04/14 05:52:57;;;;;;;24.05;16.48;;;;;;;9.12;96.66;101222.31;5060753;28;20095;-69
2023/04/14 05:55:23;;;;;;;21.88;16.95;;;;;;;9.60;93.40;101223.75;5062523;28;20047;-69
2023/04/14 05:57:48;;;;;;;22.23;16.67;;;;;;;9.76;93.50;101220.06;5065544;28;20036;-69
2023/04/14 06:00:14;;;;;;;22.17;16.50;;;;;;;9.91;91.99;101230.00;5061026;28;20067;-69
2023/04/14 06:02:40;;;;;;;21.65;16.73;;;;;;;10.03;90.70;101199.78;5058289;28;20033;-69
2023/04/14 06:05:06;;;;;;;22.95;16.33;;;;;;;9.92;92.79;101227.13;5060544;28;20029;-69
2023/04/14 06:07:34;;;;;;;22.60;16.70;;;;;;;10.00;93.34;101229.75;5060378;28;20063;-69
2023/04/14 06:10:00;;;;;;;20.10;15.88;;;;;;;10.19;92.31;101214.06;5057021;28;20028;-70
2023/04/14 06:12:26;;;;;;;21.90;15.98;;;;;;;10.23;92.67;101223.41;5060346;28;20084;-69
2023/04/14 06:14:51;;;;;;;20.80;16.55;;;;;;;10.46;92.56;101221.50;5059083;28;20025;-69
2023/04/14 06:17:16;;;;;;;22.67;16.55;;;;;;;10.49;92.65;101228.31;5025513;28;20025;-70
2023/04/14 06:19:42;;;;;;;21.75;16.80;;;;;;;10.75;91.57;101225.13;5057978;28;20055;-69
2023/04/14 06:22:07;;;;;;;21.98;15.85;;;;;;;10.89;91.42;101224.22;5057543;28;20064;-69
2023/04/14 06:24:34;;;;;;;20.88;16.13;;;;;;;11.13;90.19;101203.38;5059923;28;20043;-70
2023/04/14 06:27:02;;;;;;;25.13;16.15;;;;;;;11.51;89.48;101223.56;5060398;28;20021;-69
2023/04/14 06:29:28;;;;;;;18.60;15.38;;;;;;;11.04;91.15;101213.41;5041829;28;20024;-69
2023/04/14 06:31:53;;;;;;;20.95;16.33;;;;;;;11.21;91.18;101217.50;5059894;28;20080;-69
2023/04/14 06:34:19;;;;;;;20.98;15.68;;;;;;;11.36;91.06;101230.09;5058729;28;20040;-69
2023/04/14 06:36:44;;;;;;;20.02;15.02;;;;;;;11.62;89.91;101227.63;5060291;28;20099;-70
2023/04/14 06:39:11;;;;;;;20.13;14.63;;;;;;;11.80;89.43;101235.22;5058826;28;20021;-69
2023/04/14 06:41:36;;;;;;;20.17;14.80;;;;;;;12.10;88.62;101233.16;5062953;28;20047;-69
2023/04/14 06:44:02;;;;;;;17.60;14.52;;;;;;;12.19;87.72;101215.78;5064373;28;20028;-70
2023/04/14 06:46:27;;;;;;;19.27;15.15;;;;;;;12.19;88.17;101229.25;5058234;28;20028;-69
2023/04/14 06:48:53;;;;;;;18.45;14.52;;;;;;;11.79;89.09;101221.91;5058844;28;20132;-70
2023/04/14 06:51:18;;;;;;;18.50;14.57;;;;;;;12.19;88.55;101218.47;5058864;28;20115;-70
2023/04/14 06:53:43;;;;;;;19.02;14.15;;;;;;;12.26;88.03;101223.06;5059401;28;20473;-69
2023/04/14 06:56:09;;;;;;;16.73;13.88;;;;;;;11.95;87.46;101206.31;5042161;28;20028;-69
2023/04/14 06:58:34;;;;;;;17.00;13.70;;;;;;;12.47;86.55;101212.16;5059605;28;20029;-70
2023/04/14 07:01:01;;;;;;;19.83;14.27;;;;;;;13.00;85.31;101228.50;5041676;28;20500;-69
2023/04/14 07:03:29;;;;;;;17.15;13.20;;;;;;;13.38;84.17;101241.50;5059863;28;20029;-70
2023/04/14 07:06:01;;;;;;;19.55;14.02;;;;;;;13.33;83.55;101239.41;5057880;28;20029;-70
2023/04/14 07:08:30;;;;;;;17.95;12.70;;;;;;;13.27;83.72;101231.28;5057755;28;20024;-69
2023/04/14 07:10:59;;;;;;;15.77;12.90;;;;;;;12.66;83.85;101235.69;5059173;28;20029;-69
2023/04/14 07:13:25;;;;;;;16.50;13.00;;;;;;;13.12;83.79;101237.69;5057928;28;20436;-69
2023/04/14 07:15:51;;;;;;;19.02;14.80;;;;;;;12.94;83.34;101230.16;5058053;28;20025;-69
2023/04/14 07:18:16;;;;;;;17.33;13.20;;;;;;;13.24;82.27;101234.38;5059716;28;20097;-70
2023/04/14 07:20:41;;;;;;;18.33;14.15;;;;;;;13.51;81.42;101240.66;5059062;28;20055;-69
2023/04/14 07:23:07;;;;;;;18.38;13.93;;;;;;;13.43;80.86;101240.88;5041193;28;20036;-70
2023/04/14 07:25:35;;;;;;;29.52;20.02;;;;;;;13.49;80.65;101238.16;5059303;28;20471;-69
2023/04/14 07:28:01;;;;;;;19.85;15.25;;;;;;;13.58;79.56;101239.63;5059143;28;20033;-69
2023/04/14 07:30:27;;;;;;;22.05;15.98;;;;;;;13.86;78.66;101222.34;5058860;28;20033;-69
2023/04/14 07:32:52;;;;;;;22.05;14.27;;;;;;;14.30;77.72;101237.00;5057881;28;20032;-69
2023/04/14 07:35:17;;;;;;;18.30;13.00;;;;;;;14.53;76.88;101239.25;5057676;28;20067;-70
2023/04/14 07:37:43;;;;;;;15.35;12.95;;;;;;;14.57;76.79;101245.91;5058913;28;20060;-69
2023/04/14 07:40:08;;;;;;;18.23;12.80;;;;;;;14.59;75.16;101243.81;5057607;28;20033;-70
2023/04/14 07:42:34;;;;;;;15.93;12.00;;;;;;;14.88;75.11;101241.59;5057241;28;20024;-69
2023/04/14 07:45:00;;;;;;;16.90;12.10;;;;;;;14.76;74.40;101241.44;5057233;28;20021;-70
2023/04/14 07:47:26;;;;;;;15.63;11.93;;;;;;;14.99;73.74;101241.72;5054865;28;20029;-69
2023/04/14 07:49:53;;;;;;;15.75;11.85;;;;;;;14.87;73.66;101238.06;5054889;28;20116;-69
2023/04/14 07:52:18;;;;;;;14.52;11.90;;;;;;;14.88;73.69;101247.84;5063340;28;20057;-69
2023/04/14 07:54:44;;;;;;;13.63;11.40;;;;;;;14.76;72.88;101247.69;5062730;28;20033;-70
2023/04/14 07:57:10;;;;;;;13.32;11.90;;;;;;;14.12;73.75;101250.38;5059103;28;20029;-69
2023/04/14 07:59:37;;;;;;;15.63;11.60;;;;;;;14.15;73.81;101249.97;5058910;28;20033;-70
2023/04/14 08:02:02;;;;;;;15.40;11.02;;;;;;;14.57;72.83;101237.78;5056960;28;20025;-70
2023/04/14 08:04:28;;;;;;;13.85;11.30;;;;;;;14.95;71.92;101236.97;5023462;28;20021;-70
2023/04/14 08:06:53;;;;;;;13.60;10.43;;;;;;;15.12;71.45;101234.56;5056890;28;20039;-69
2023/04/14 08:09:18;;;;;;;17.48;11.30;;;;;;;15.46;70.58;101238.69;5057063;28;20472;-69
2023/04/14 08:11:44;;;;;;;16.25;11.40;;;;;;;15.45;70.39;101235.16;5057237;28;20061;-69
2023/04/14 08:14:10;;;;;;;18.20;12.40;;;;;;;15.03;70.44;101234.84;5056860;28;20025;-69
2023/04/14 08:16:35;;;;;;;16.20;12.20;;;;;;;14.93;70.41;101252.59;5056987;28;20025;-70
2023/04/14 08:19:02;;;;;;;14.88;13.25;;;;;;;14.74;70.80;101249.78;5057895;28;20081;-69
2023/04/14 08:21:27;;;;;;;16.90;13.40;;;;;;;14.31;72.49;101252.22;5057343;28;20036;-69
2023/04/14 08:23:53;;;;;;;16.77;13.35;;;;;;;14.24;73.28;101246.00;5058271;28;20088;-69
2023/04/14 08:26:18;;;;;;;17.65;14.32;;;;;;;13.96;74.60;101251.66;5057929;28;20028;-70
2023/04/14 08:28:45;;;;;;;16.70;13.68;;;;;;;13.55;76.48;101250.88;5058248;28;20115;-69
2023/04/14 08:31:10;;;;;;;16.77;13.95;;;;;;;13.62;77.04;101254.41;5057993;28;20032;-70
2023/04/14 08:33:36;;;;;;;18.95;13.95;;;;;;;13.86;76.13;101255.63;5057305;28;20435;-69
2023/04/14 08:36:07;;;;;;;18.05;14.13;;;;;;;13.98;75.08;101253.13;5056606;28;20131;-70
2023/04/14 08:38:32;;;;;;;18.70;13.35;;;;;;;13.91;75.46;101256.84;5055898;28;20029;-69
2023/04/14 08:41:00;;;;;;;17.88;13.80;;;;;;;13.53;77.02;101238.59;5064723;28;20084;-69
2023/04/14 08:43:25;;;;;;;15.55;13.50;;;;;;;13.83;76.29;101260.63;5059625;28;20025;-70
2023/04/14 08:45:55;;;;;;;17.20;12.80;;;;;;;14.01;75.44;101260.00;5058013;28;20082;-69
2023/04/14 08:48:26;;;;;;;18.20;13.82;;;;;;;13.96;75.01;101255.19;5057641;28;20025;-69
2023/04/14 08:51:01;;;;;;;17.77;14.32;;;;;;;13.90;75.05;101250.63;5055938;28;20036;-69
2023/04/14 08:53:29;;;;;;;17.25;13.75;;;;;;;13.95;74.95;101253.53;5057923;28;20025;-69
2023/04/14 08:55:57;;;;;;;18.05;14.02;;;;;;;13.92;74.59;101259.38;5057109;28;20171;-69
2023/04/14 08:58:22;;;;;;;17.88;13.48;;;;;;;13.94;74.56;101254.59;5057029;28;20111;-69
2023/04/14 09:00:48;;;;;;;16.33;13.60;;;;;;;13.90;74.54;101241.69;5056125;28;20071;-70
2023/04/14 09:03:14;;;;;;;15.73;13.18;;;;;;;13.78;74.89;101252.31;5056673;28;20087;-69
2023/04/14 09:05:40;;;;;;;15.93;13.45;;;;;;;13.97;74.37;101251.47;5022702;28;20502;-69
2023/04/14 09:08:06;;;;;;;15.85;12.60;;;;;;;14.17;74.61;101248.72;5056987;28;20032;-70
2023/04/14 09:10:34;;;;;;;17.70;12.52;;;;;;;14.07;73.55;101242.88;5039147;28;20032;-69
2023/04/14 09:13:00;;;;;;;19.23;12.73;;;;;;;14.36;73.66;101243.44;5039918;28;20512;-70
2023/04/14 09:15:27;;;;;;;17.17;13.65;;;;;;;14.29;73.45;101238.06;5039045;28;20029;-69
2023/04/14 09:17:53;;;;;;;16.25;13.82;;;;;;;14.26;73.08;101242.00;5055601;28;20043;-69
2023/04/14 09:20:19;;;;;;;18.15;14.75;;;;;;;13.86;74.37;101238.56;5038843;28;20147;-70
2023/04/14 09:22:45;;;;;;;17.55;15.40;;;;;;;13.34;76.49;101224.00;5053045;28;20060;-69
2023/04/14 09:25:14;;;;;;;18.00;15.38;;;;;;;13.43;77.18;101248.97;5054323;28;20043;-69
2023/04/14 09:27:40;;;;;;;17.33;14.75;;;;;;;13.31;77.95;101251.44;5056014;28;20463;-69
2023/04/14 09:30:07;;;;;;;18.30;15.02;;;;;;;13.39;77.85;101249.41;5054888;28;20024;-70
2023/04/14 09:32:33;;;;;;;17.92;14.90;;;;;;;13.21;78.81;101261.81;5056284;28;20032;-69
2023/04/14 09:34:58;;;;;;;16.85;15.05;;;;;;;12.97;79.41;101253.22;5056941;28;20029;-69
2023/04/14 09:37:24;;;;;;;19.75;16.20;;;;;;;12.65;80.94;101257.50;5056910;28;20068;-69
2023/04/14 09:39:51;;;;;;;18.48;14.15;;;;;;;12.60;81.71;101260.81;5051509;28;20403;-69
2023/04/14 09:42:17;;;;;;;17.25;15.35;;;;;;;12.67;81.57;101255.44;5056360;28;20409;-69
2023/04/14 09:44:56;;;;;;;18.35;14.38;;;;;;;12.81;81.40;101256.31;5061823;28;20029;-69
2023/04/14 09:47:23;;;;;;;20.02;15.15;;;;;;;12.98;80.58;101263.03;5062626;28;20359;-70
2023/04/14 09:50:02;;;;;;;16.98;14.27;;;;;;;13.17;80.28;101253.28;5055100;28;20125;-69
2023/04/14 09:52:38;;;;;;;16.20;13.35;;;;;;;13.34;80.05;101261.84;5057303;28;20029;-70
2023/04/14 09:55:12;;;;;;;17.80;13.88;;;;;;;13.43;79.54;101254.38;5056923;28;20013;-69
2023/04/14 09:57:42;;;;;;;16.93;12.87;;;;;;;13.45;79.78;101242.34;5039777;28;20025;-70
2023/04/14 10:00:30;;;;;;;15.57;12.68;;;;;;;13.73;79.31;101255.63;5055369;28;20025;-69
2023/04/14 10:03:00;;;;;;;17.05;13.10;;;;;;;13.60;78.90;101248.34;5055469;28;20021;-70
2023/04/14 10:05:27;;;;;;;15.68;12.90;;;;;;;13.69;78.67;101245.44;5056021;28;20021;-69
2023/04/14 10:07:52;;;;;;;15.45;12.18;;;;;;;13.77;78.04;101247.94;5057498;28;20040;-69
2023/04/14 10:10:18;;;;;;;16.55;11.02;;;;;;;13.88;77.71;101243.78;5057097;28;20025;-69
2023/04/14 10:12:45;;;;;;;11.57;8.60;;;;;;;13.85;78.40;101248.56;5055729;28;20047;-69
2023/04/14 10:15:11;;;;;;;10.63;7.90;;;;;;;14.27;76.85;101245.53;5055611;28;20029;-69
2023/04/14 10:17:41;;;;;;;10.45;8.55;;;;;;;14.48;75.82;101241.75;5056954;28;20111;-69
2023/04/14 10:20:07;;;;;;;9.82;8.38;;;;;;;14.70;74.76;101231.47;5055451;28;20041;-69
2023/04/14 10:22:33;;;;;;;9.90;7.90;;;;;;;14.71;74.66;101246.69;5056373;28;20529;-70
2023/04/14 10:24:59;;;;;;;10.77;8.88;;;;;;;14.94;74.62;101255.09;5055649;28;20037;-69
2023/04/14 10:27:30;;;;;;;9.40;8.25;;;;;;;14.67;73.15;101235.44;5055089;28;20037;-69
2023/04/14 10:29:56;;;;;;;8.45;7.53;;;;;;;15.02;73.77;101238.56;5056955;28;20017;-69
2023/04/14 10:32:24;;;;;;;10.85;8.65;;;;;;;15.27;72.65;101240.53;5057364;28;20098;-69
2023/04/14 10:35:06;;;;;;;10.70;8.65;;;;;;;14.92;71.74;101248.22;5058813;28;20047;-69
2023/04/14 10:37:32;;;;;;;10.35;8.45;;;;;;;15.13;72.28;101239.78;5077031;28;20021;-69
2023/04/14 10:40:00;;;;;;;10.30;8.60;;;;;;;15.33;71.66;101253.19;5043194;28;20032;-69
2023/04/14 10:42:25;;;;;;;10.43;9.00;;;;;;;14.91;72.64;101242.00;5060509;28;20084;-69
2023/04/14 10:45:04;;;;;;;8.27;7.43;;;;;;;15.06;71.21;101244.38;5060914;28;20443;-70
2023/04/14 10:47:30;;;;;;;10.52;8.38;;;;;;;15.04;71.34;101241.09;5058929;28;20031;-69
2023/04/14 10:49:57;;;;;;;9.43;8.30;;;;;;;15.16;71.55;101241.19;5056800;28;20403;-69
2023/04/14 10:52:24;;;;;;;9.00;8.10;;;;;;;15.35;71.07;101250.25;5055052;28;20503;-70
2023/04/14 10:54:59;;;;;;;9.32;8.02;;;;;;;15.32;70.49;101247.97;5056638;28;20108;-69
2023/04/14 10:57:26;;;;;;;10.43;8.00;;;;;;;15.27;70.54;101224.25;5060861;28;20028;-69
2023/04/14 10:59:57;;;;;;;11.18;9.13;;;;;;;15.02;70.72;101249.41;5060593;28;20048;-69
2023/04/14 11:02:31;;;;;;;10.70;8.68;;;;;;;15.15;71.09;101239.53;5060147;28;20066;-69
2023/04/14 11:05:10;;;;;;;9.10;8.00;;;;;;;15.13;71.11;101239.78;5061006;28;20025;-69
2023/04/14 11:07:39;;;;;;;10.32;8.43;;;;;;;15.21;71.52;101247.63;5060783;28;20033;-69
2023/04/14 11:10:16;;;;;;;8.93;7.55;;;;;;;15.49;66.86;101235.53;5061366;28;20029;-69
2023/04/14 11:12:43;;;;;;;8.75;7.68;;;;;;;15.91;67.87;101238.53;5060495;28;20035;-69
2023/04/14 11:15:09;;;;;;;11.32;7.50;;;;;;;16.03;65.18;101233.22;5059072;28;20108;-69
2023/04/14 11:17:39;;;;;;;9.93;8.30;;;;;;;15.73;66.36;101234.75;5059662;28;20028;-69
2023/04/14 11:20:13;;;;;;;8.00;7.18;;;;;;;15.74;64.98;101238.28;5058582;28;20056;-69